Time;durP1;ratioP1;P1;durP2;ratioP2;P2;SDS_P1;SDS_P2;PMS_P1;PMS_P2;Temp;Humidity;BMP_temperature;BMP_pressure;BME280_temperature;BME280_humidity;BME280_pressure;Samples;Min_cycle;Max_cycle;Signal;HPM_P1;HPM_P2
2024/01/09 00:00:09;;;;;;;10.85;7.82;;;;;;;-1.43;50.61;101527.53;10323965;28;20049;-62
2024/01/09 00:05:11;;;;;;;11.10;8.65;;;;;;;-1.43;50.27;101527.53;10342250;28;20072;-63
2024/01/09 00:10:12;;;;;;;12.05;8.57;;;;;;;-1.48;50.37;101539.78;10325906;28;20051;-63
2024/01/09 00:15:14;;;;;;;10.43;8.43;;;;;;;-1.59;51.34;101515.53;10322609;28;20078;-62
2024/01/09 00:20:16;;;;;;;12.10;8.32;;;;;;;-1.55;51.06;101538.09;10323458;28;20046;-63
2024/01/09 00:25:18;;;;;;;10.27;7.13;;;;;;;-1.60;50.53;101535.53;10346015;28;20679;-63
2024/01/09 00:30:20;;;;;;;10.73;8.55;;;;;;;-1.56;51.08;101536.38;10319196;28;20042;-62
2024/01/09 00:35:21;;;;;;;11.20;8.18;;;;;;;-1.61;51.38;101532.94;10326937;28;20051;-64
2024/01/09 00:40:23;;;;;;;10.93;8.60;;;;;;;-1.58;51.60;101530.28;10323306;28;20077;-63
2024/01/09 00:45:24;;;;;;;12.85;8.70;;;;;;;-1.55;51.13;101527.66;10324062;28;20701;-62
2024/01/09 00:50:26;;;;;;;11.23;7.88;;;;;;;-1.63;51.11;101519.03;10331630;28;20183;-62
2024/01/09 00:55:28;;;;;;;10.23;7.93;;;;;;;-1.81;50.73;101509.63;10326824;28;20087;-62
2024/01/09 01:00:29;;;;;;;11.30;8.30;;;;;;;-1.70;51.93;101520.81;10326737;28;20049;-62
2024/01/09 01:05:33;;;;;;;11.25;8.50;;;;;;;-1.70;52.20;101512.13;10320759;28;20062;-64
2024/01/09 01:10:34;;;;;;;11.70;8.73;;;;;;;-1.81;51.43;101510.47;10342830;28;20054;-62
2024/01/09 01:15:36;;;;;;;12.25;8.70;;;;;;;-1.81;51.98;101515.72;10340116;28;20123;-62
2024/01/09 01:20:37;;;;;;;10.85;7.82;;;;;;;-1.76;51.92;101512.19;10323569;28;20691;-63
2024/01/09 01:25:39;;;;;;;11.13;8.52;;;;;;;-1.79;52.34;101518.31;10322048;28;20054;-62
2024/01/09 01:30:40;;;;;;;12.68;8.77;;;;;;;-1.85;52.55;101519.22;10322903;28;20054;-62
2024/01/09 01:35:42;;;;;;;10.23;8.02;;;;;;;-1.91;52.37;101532.31;10326395;28;20096;-62
2024/01/09 01:40:43;;;;;;;11.60;8.63;;;;;;;-2.08;52.27;101489.88;10318929;28;20061;-63
2024/01/09 01:45:45;;;;;;;11.35;8.43;;;;;;;-1.88;51.72;101524.47;10319385;28;20084;-61
2024/01/09 01:50:47;;;;;;;10.90;7.90;;;;;;;-1.82;52.90;101514.00;10319876;28;20237;-62
2024/01/09 01:55:49;;;;;;;14.35;9.25;;;;;;;-1.89;52.46;101517.53;10318711;28;20058;-63
2024/01/09 02:00:51;;;;;;;11.02;8.88;;;;;;;-2.02;52.71;101505.47;10314711;28;20065;-63
2024/01/09 02:05:54;;;;;;;10.45;8.27;;;;;;;-2.00;52.51;101509.81;10347128;28;20057;-63
2024/01/09 02:10:56;;;;;;;12.38;8.48;;;;;;;-1.90;52.22;101523.63;10323014;28;20148;-62
2024/01/09 02:15:57;;;;;;;11.88;9.00;;;;;;;-1.88;52.28;101519.25;10345710;28;20562;-63
2024/01/09 02:20:59;;;;;;;10.38;8.25;;;;;;;-1.86;52.40;101511.41;10330571;28;20160;-62
2024/01/09 02:26:01;;;;;;;10.85;9.07;;;;;;;-1.99;51.77;101489.78;10348687;28;20141;-62
2024/01/09 02:31:09;;;;;;;10.63;8.57;;;;;;;-1.95;50.88;101509.75;10322480;28;20180;-62
2024/01/09 02:36:11;;;;;;;11.40;7.65;;;;;;;-1.90;52.14;101507.97;10321794;28;20123;-63
2024/01/09 02:41:12;;;;;;;11.32;8.30;;;;;;;-1.89;51.99;101506.22;10353166;28;20603;-62
2024/01/09 02:46:14;;;;;;;10.63;8.65;;;;;;;-1.91;51.92;101507.97;10330716;28;20060;-63
2024/01/09 02:51:15;;;;;;;11.95;8.30;;;;;;;-2.07;51.55;101488.97;10327866;28;20057;-64
2024/01/09 02:56:16;;;;;;;12.75;8.25;;;;;;;-1.93;51.63;101504.53;10326465;28;20153;-62
2024/01/09 03:01:18;;;;;;;11.65;8.00;;;;;;;-1.93;51.68;101497.56;10319595;28;20057;-65
2024/01/09 03:06:20;;;;;;;10.48;8.38;;;;;;;-2.17;52.00;101496.88;10355668;28;20041;-62
2024/01/09 03:11:21;;;;;;;10.88;8.18;;;;;;;-2.23;51.38;101465.63;10328095;28;20045;-61
2024/01/09 03:16:23;;;;;;;10.52;7.53;;;;;;;-2.08;52.11;101495.06;10326892;28;20057;-62
2024/01/09 03:21:24;;;;;;;12.50;8.35;;;;;;;-2.13;51.64;101469.88;10325269;28;20121;-62
2024/01/09 03:26:25;;;;;;;9.43;7.30;;;;;;;-2.05;51.83;101492.44;10330451;28;20042;-62
2024/01/09 03:31:27;;;;;;;10.20;7.78;;;;;;;-2.17;51.33;101490.78;10323523;28;20113;-62
2024/01/09 03:36:30;;;;;;;10.98;7.80;;;;;;;-2.08;51.56;101489.88;10347190;28;20120;-62
2024/01/09 03:41:32;;;;;;;8.40;6.72;;;;;;;-2.09;50.71;101490.72;10359668;28;20096;-62
2024/01/09 03:46:33;;;;;;;9.65;7.25;;;;;;;-2.21;51.00;101483.88;10328222;28;20050;-63
2024/01/09 03:51:35;;;;;;;10.00;7.55;;;;;;;-2.18;51.93;101494.28;10325890;28;20053;-62
2024/01/09 03:56:36;;;;;;;8.45;6.75;;;;;;;-2.40;51.45;101488.34;10323698;28;20050;-63
2024/01/09 04:01:40;;;;;;;9.40;6.93;;;;;;;-2.37;51.13;101490.91;10328473;28;20088;-62
2024/01/09 04:06:43;;;;;;;9.90;7.00;;;;;;;-2.34;51.47;101483.09;10324326;28;20054;-62
2024/01/09 04:11:45;;;;;;;8.45;6.88;;;;;;;-2.45;51.04;101466.66;10321149;28;20054;-62
2024/01/09 04:16:47;;;;;;;10.65;7.28;;;;;;;-2.53;51.21;101469.31;10323205;28;20054;-62
2024/01/09 04:21:49;;;;;;;9.40;6.80;;;;;;;-2.38;51.25;101471.81;10322968;28;20076;-62
2024/01/09 04:26:51;;;;;;;8.48;6.32;;;;;;;-2.36;51.17;101463.97;10329494;28;20056;-61
2024/01/09 04:31:52;;;;;;;8.70;6.25;;;;;;;-2.23;50.97;101476.06;10343851;28;22504;-63
2024/01/09 04:36:55;;;;;;;8.60;6.35;;;;;;;-2.39;50.32;101469.22;10328407;28;20056;-65
2024/01/09 04:41:56;;;;;;;8.43;6.10;;;;;;;-2.52;51.04;101463.25;10321477;28;20106;-63
2024/01/09 04:46:59;;;;;;;10.48;6.63;;;;;;;-2.55;50.55;101471.94;10325463;28;20629;-63
2024/01/09 04:52:00;;;;;;;7.00;6.05;;;;;;;-2.90;50.29;101438.25;10324453;28;20149;-63
2024/01/09 04:57:02;;;;;;;11.00;6.05;;;;;;;-2.60;51.06;101465.88;10324489;28;20137;-63
2024/01/09 05:02:03;;;;;;;8.57;6.22;;;;;;;-2.47;50.63;101465.81;10321485;28;20101;-62
2024/01/09 05:07:05;;;;;;;9.65;5.95;;;;;;;-2.64;50.66;101447.66;10326521;28;20046;-63
2024/01/09 05:12:07;;;;;;;9.98;6.18;;;;;;;-2.52;49.73;101456.28;10346032;28;20045;-62
2024/01/09 05:17:08;;;;;;;8.88;5.55;;;;;;;-2.69;50.53;101445.09;10320864;28;20060;-63
2024/01/09 05:22:09;;;;;;;7.18;5.65;;;;;;;-2.67;50.34;101448.56;10323106;28;20050;-63
2024/01/09 05:27:13;;;;;;;8.52;5.75;;;;;;;-2.58;50.47;101450.22;10338823;28;20207;-64
2024/01/09 05:32:18;;;;;;;10.33;6.73;;;;;;;-2.67;50.70;101448.56;10330824;28;20112;-62
2024/01/09 05:37:20;;;;;;;7.28;5.00;;;;;;;-2.68;50.50;101468.53;10325990;28;20149;-63
2024/01/09 05:42:23;;;;;;;8.45;5.60;;;;;;;-2.55;50.55;101458.91;10324278;28;20662;-63
2024/01/09 05:47:24;;;;;;;8.60;5.70;;;;;;;-2.54;50.50;101455.44;10323059;28;20164;-61
2024/01/09 05:52:27;;;;;;;9.23;6.20;;;;;;;-2.68;50.67;101452.03;10327453;28;20046;-62
2024/01/09 05:57:28;;;;;;;8.00;6.05;;;;;;;-2.88;50.75;101426.13;10332349;28;20152;-62
2024/01/09 06:02:30;;;;;;;8.00;5.55;;;;;;;-2.79;50.30;101432.97;10323578;28;20783;-62
2024/01/09 06:07:31;;;;;;;8.15;5.53;;;;;;;-2.87;51.06;101449.56;10334584;28;20113;-62
2024/01/09 06:12:33;;;;;;;7.15;5.57;;;;;;;-2.94;51.40;101445.25;10374882;28;20100;-64
2024/01/09 06:17:34;;;;;;;7.60;5.97;;;;;;;-2.78;50.71;101452.97;10335839;28;20112;-62
2024/01/09 06:22:36;;;;;;;7.53;5.20;;;;;;;-3.02;50.87;101447.00;10337756;28;20067;-62
2024/01/09 06:27:39;;;;;;;7.90;5.50;;;;;;;-3.10;51.85;101454.00;10352303;28;20054;-63
2024/01/09 06:32:42;;;;;;;8.20;5.43;;;;;;;-3.22;51.27;101452.31;10331202;28;20085;-62
2024/01/09 06:37:44;;;;;;;8.90;5.78;;;;;;;-3.22;51.79;101453.19;10350587;28;20147;-63
2024/01/09 06:42:46;;;;;;;6.95;5.07;;;;;;;-3.28;52.12;101455.81;10332499;28;20046;-62
2024/01/09 06:47:48;;;;;;;8.68;5.80;;;;;;;-3.28;51.43;101452.34;10337407;28;20053;-63
2024/01/09 06:52:50;;;;;;;8.80;5.43;;;;;;;-3.00;51.55;101455.72;10331813;28;20145;-67
2024/01/09 06:57:52;;;;;;;9.02;5.65;;;;;;;-2.93;51.58;101470.41;10330685;28;20424;-61
2024/01/09 07:02:54;;;;;;;7.68;5.35;;;;;;;-3.02;50.91;101465.25;10328410;28;20054;-61
2024/01/09 07:07:55;;;;;;;9.57;6.25;;;;;;;-3.03;51.56;101467.00;10358162;28;20058;-63
2024/01/09 07:12:57;;;;;;;9.45;6.65;;;;;;;-3.12;51.87;101464.44;10325400;28;20199;-62
2024/01/09 07:17:58;;;;;;;8.30;5.95;;;;;;;-2.78;57.91;101481.63;10323959;28;20053;-62
2024/01/09 07:23:03;;;;;;;6.30;4.75;;;;;;;-2.71;51.65;101475.53;10337896;28;20053;-64
2024/01/09 07:28:20;;;;;;;8.88;6.72;;;;;;;-2.79;51.44;101485.09;10327875;28;20062;-64
2024/01/09 07:33:21;;;;;;;9.52;6.32;;;;;;;-3.17;51.73;101486.16;10329402;28;20064;-66
2024/01/09 07:38:24;;;;;;;6.75;4.82;;;;;;;-3.10;51.17;101480.06;10348741;28;20057;-67
2024/01/09 07:43:29;;;;;;;9.07;6.10;;;;;;;-3.04;51.51;101511.28;10358063;28;20153;-62
2024/01/09 07:48:34;;;;;;;7.63;5.40;;;;;;;-2.87;51.55;101492.97;10350649;28;20202;-62
2024/01/09 07:53:36;;;;;;;7.53;5.50;;;;;;;-2.92;50.82;101500.81;10339217;28;20534;-64
2024/01/09 07:58:38;;;;;;;9.15;5.38;;;;;;;-2.79;50.56;101496.41;10324613;28;20492;-62
2024/01/09 08:03:40;;;;;;;8.25;5.53;;;;;;;-2.69;50.92;101499.81;10326546;28;20137;-61
2024/01/09 08:08:43;;;;;;;8.65;5.63;;;;;;;-2.72;51.11;101502.44;10322189;28;20053;-61
2024/01/09 08:13:48;;;;;;;7.53;5.80;;;;;;;-2.88;50.94;101501.69;10326915;28;20046;-61
2024/01/09 08:18:49;;;;;;;7.47;5.53;;;;;;;-2.70;50.53;101501.56;10323721;28;20141;-65
2024/01/09 08:23:52;;;;;;;8.85;5.72;;;;;;;-2.60;50.64;101499.78;10341007;28;20057;-64
2024/01/09 08:28:54;;;;;;;8.68;5.45;;;;;;;-2.74;50.44;101499.84;10324153;28;20061;-63
2024/01/09 08:33:56;;;;;;;7.45;4.97;;;;;;;-2.58;50.39;101491.94;10323922;28;20088;-61
2024/01/09 08:38:57;;;;;;;8.02;5.60;;;;;;;-2.46;50.05;101497.09;10324081;28;20140;-64
2024/01/09 08:43:59;;;;;;;9.90;5.68;;;;;;;-2.50;49.44;101500.59;10326738;28;20061;-63
2024/01/09 08:49:00;;;;;;;8.07;5.60;;;;;;;-2.47;49.46;101499.72;10325908;28;20036;-62
2024/01/09 08:54:02;;;;;;;10.25;6.38;;;;;;;-2.26;49.37;101501.31;10337637;28;20105;-66
2024/01/09 08:59:13;;;;;;;8.90;5.72;;;;;;;-2.33;49.29;101505.69;10323989;28;20050;-62
2024/01/09 09:04:14;;;;;;;8.25;6.25;;;;;;;-2.33;49.02;101505.69;10323474;28;20374;-62
2024/01/09 09:09:16;;;;;;;7.68;4.68;;;;;;;-2.19;49.07;101506.47;10336966;28;20069;-64
2024/01/09 09:14:17;;;;;;;7.85;5.78;;;;;;;-2.09;48.10;101509.00;10363913;28;20252;-63
2024/01/09 09:19:22;;;;;;;10.57;6.10;;;;;;;-2.22;48.06;101501.28;10326220;28;20050;-63
2024/01/09 09:24:26;;;;;;;9.00;5.80;;;;;;;-1.94;48.01;101516.69;10316248;28;20677;-62
2024/01/09 09:29:30;;;;;;;8.50;5.68;;;;;;;-1.89;48.33;101504.47;10355968;28;20051;-63
2024/01/09 09:34:40;;;;;;;9.27;5.30;;;;;;;-1.93;47.73;101510.59;10324084;28;20112;-63
2024/01/09 09:39:46;;;;;;;13.57;8.73;;;;;;;-1.75;47.59;101508.72;10344529;28;20050;-63
2024/01/09 09:44:54;;;;;;;9.38;6.40;;;;;;;-1.75;47.05;101501.72;10328555;28;20149;-62
2024/01/09 09:49:57;;;;;;;8.50;5.63;;;;;;;-1.78;46.88;101500.00;10366046;28;20050;-64
2024/01/09 09:55:00;;;;;;;8.43;6.35;;;;;;;-1.66;46.23;101499.03;10311815;28;20393;-62
2024/01/09 10:00:04;;;;;;;10.88;7.25;;;;;;;-1.54;46.78;101494.59;10334196;28;20042;-63
2024/01/09 10:05:13;;;;;;;8.75;6.03;;;;;;;-1.35;46.04;101487.38;10331043;28;20076;-65
2024/01/09 10:10:16;;;;;;;7.82;5.43;;;;;;;-1.20;46.04;101479.41;10331000;28;20054;-62
2024/01/09 10:15:17;;;;;;;8.88;5.88;;;;;;;-0.90;45.69;101493.81;10331736;28;20058;-64
2024/01/09 10:20:21;;;;;;;7.43;5.47;;;;;;;-0.74;44.98;101484.00;10329108;28;20415;-65
2024/01/09 10:25:26;;;;;;;6.22;4.93;;;;;;;-0.65;44.50;101474.31;10331945;28;20815;-63
2024/01/09 10:30:28;;;;;;;8.32;5.68;;;;;;;-0.54;44.81;101486.34;10333038;28;20058;-65
2024/01/09 10:35:29;;;;;;;8.20;6.10;;;;;;;-0.40;44.22;101462.59;10302108;28;20115;-63
2024/01/09 10:40:30;;;;;;;9.70;6.35;;;;;;;0.01;43.56;101475.88;10325566;28;20053;-65
2024/01/09 10:45:32;;;;;;;9.02;6.22;;;;;;;0.55;42.58;101456.56;10329257;28;20185;-66
2024/01/09 10:50:34;;;;;;;9.55;6.05;;;;;;;0.77;40.03;101450.91;10348480;28;20127;-64
2024/01/09 10:55:37;;;;;;;7.13;5.85;;;;;;;1.34;39.03;101454.94;10330266;28;20602;-64
2024/01/09 11:00:40;;;;;;;6.90;5.35;;;;;;;2.02;39.64;101450.66;10348704;28;20139;-64
2024/01/09 11:05:51;;;;;;;8.65;5.68;;;;;;;2.70;37.66;101436.53;10327274;28;20132;-63
2024/01/09 11:10:54;;;;;;;6.50;5.45;;;;;;;3.40;36.60;101445.84;10315664;28;20408;-65
2024/01/09 11:15:57;;;;;;;7.85;6.00;;;;;;;4.03;35.16;101442.94;10326977;28;20100;-64
2024/01/09 11:21:03;;;;;;;6.90;6.03;;;;;;;4.50;34.96;101429.81;10321094;28;20152;-64
2024/01/09 11:26:06;;;;;;;8.50;6.00;;;;;;;5.03;33.90;101430.50;10327732;28;20048;-65
2024/01/09 11:31:07;;;;;;;9.90;5.80;;;;;;;5.51;33.06;101403.13;10342477;28;20631;-66
2024/01/09 11:36:11;;;;;;;7.03;5.13;;;;;;;5.91;32.20;101396.13;10341936;28;20045;-65
2024/01/09 11:41:13;;;;;;;6.20;4.60;;;;;;;6.22;31.43;101389.56;10335771;28;20078;-64
2024/01/09 11:46:15;;;;;;;6.60;5.30;;;;;;;6.62;30.36;101390.44;10329721;28;20526;-65
2024/01/09 11:51:17;;;;;;;6.95;5.57;;;;;;;7.07;30.51;101389.19;10325354;28;20105;-64
2024/01/09 11:56:21;;;;;;;8.95;6.70;;;;;;;7.42;29.97;101381.31;10323128;28;20552;-65
2024/01/09 12:01:23;;;;;;;7.63;5.78;;;;;;;7.64;28.93;101372.31;10314881;28;20065;-65
2024/01/09 12:06:28;;;;;;;6.53;5.13;;;;;;;8.14;28.49;101360.88;10350978;28;20607;-64
2024/01/09 12:11:35;;;;;;;7.53;5.60;;;;;;;8.28;28.23;101352.19;10321519;28;20510;-64
2024/01/09 12:16:37;;;;;;;7.57;5.50;;;;;;;8.63;27.90;101338.88;10318858;28;20129;-64
2024/01/09 12:21:38;;;;;;;10.63;6.22;;;;;;;9.03;26.42;101341.09;10318680;28;20384;-61
2024/01/09 12:26:40;;;;;;;10.88;7.10;;;;;;;9.35;27.11;101330.41;10324398;28;20088;-64
2024/01/09 12:31:42;;;;;;;8.90;5.97;;;;;;;9.65;26.20;101310.94;10343542;28;20045;-65
2024/01/09 12:36:43;;;;;;;7.70;6.45;;;;;;;10.11;25.88;101317.94;10325866;28;20128;-64
2024/01/09 12:41:45;;;;;;;7.63;5.78;;;;;;;10.57;24.98;101315.94;10341440;28;20161;-66
2024/01/09 12:46:47;;;;;;;6.60;5.53;;;;;;;10.74;24.42;101303.34;10327944;28;20084;-65
2024/01/09 12:51:50;;;;;;;7.18;5.85;;;;;;;11.12;24.36;101297.31;10327104;28;20439;-65
2024/01/09 12:56:51;;;;;;;7.47;5.95;;;;;;;11.71;23.92;101293.38;10326954;28;20145;-64
2024/01/09 13:01:54;;;;;;;7.72;5.63;;;;;;;11.90;22.49;101288.50;10333299;28;20068;-65
2024/01/09 13:06:55;;;;;;;7.55;6.15;;;;;;;12.63;22.41;101296.75;10332128;28;20136;-61
2024/01/09 13:11:59;;;;;;;9.13;7.03;;;;;;;12.80;22.19;101284.84;10318589;28;20054;-65
2024/01/09 13:17:01;;;;;;;7.00;5.43;;;;;;;13.45;21.60;101278.22;10321664;28;20053;-64
2024/01/09 13:22:04;;;;;;;8.25;6.13;;;;;;;13.95;20.34;101280.63;10347382;28;20057;-66
2024/01/09 13:27:11;;;;;;;7.68;5.85;;;;;;;14.59;19.73;101277.31;10324863;28;20043;-65
2024/01/09 13:32:12;;;;;;;8.07;6.65;;;;;;;14.21;20.43;101258.97;10332263;28;20129;-65
2024/01/09 13:37:14;;;;;;;8.88;6.65;;;;;;;14.90;19.65;101285.53;10326105;28;20054;-63
2024/01/09 13:42:16;;;;;;;7.22;5.95;;;;;;;15.27;18.72;101278.97;10341097;28;20042;-63
2024/01/09 13:47:17;;;;;;;7.05;6.18;;;;;;;15.78;18.28;101277.31;10314600;28;20101;-64
2024/01/09 13:52:19;;;;;;;8.43;5.88;;;;;;;14.94;18.93;101273.59;10317227;28;20221;-65
2024/01/09 13:57:21;;;;;;;8.00;6.57;;;;;;;10.81;22.98;101280.72;10318901;28;20053;-64
2024/01/09 14:02:22;;;;;;;8.38;6.78;;;;;;;8.24;25.53;101280.81;10326679;28;20061;-64
2024/01/09 14:07:24;;;;;;;8.25;7.30;;;;;;;6.52;27.72;101244.47;10330916;28;21093;-65
2024/01/09 14:12:31;;;;;;;8.68;6.53;;;;;;;6.12;29.00;101283.34;10318967;28;20054;-63
2024/01/09 14:17:33;;;;;;;7.68;5.97;;;;;;;5.28;29.39;101253.53;10330992;28;20057;-65
2024/01/09 14:22:35;;;;;;;8.38;6.40;;;;;;;5.03;30.72;101266.91;10323310;28;20061;-63
2024/01/09 14:27:39;;;;;;;8.40;6.85;;;;;;;4.87;30.83;101291.28;10321537;28;20050;-62
2024/01/09 14:32:41;;;;;;;9.40;7.38;;;;;;;4.57;31.35;101286.28;10333774;28;20061;-65
2024/01/09 14:37:44;;;;;;;8.90;6.57;;;;;;;4.44;31.98;101292.94;10347431;28;20051;-63
2024/01/09 14:42:45;;;;;;;8.15;6.60;;;;;;;4.09;31.86;101276.69;10351591;28;20064;-65
2024/01/09 14:47:47;;;;;;;8.63;6.22;;;;;;;3.65;32.49;101263.38;10321422;28;20063;-65
2024/01/09 14:52:49;;;;;;;9.75;6.90;;;;;;;3.75;34.03;101275.28;10325482;28;20207;-65
2024/01/09 14:57:52;;;;;;;10.38;7.63;;;;;;;3.68;33.17;101277.28;10357376;28;20138;-64
2024/01/09 15:02:56;;;;;;;9.45;7.38;;;;;;;3.48;32.94;101264.84;10322091;28;20057;-63
2024/01/09 15:07:58;;;;;;;11.40;8.10;;;;;;;3.52;35.83;101261.16;10349974;28;20109;-66
2024/01/09 15:12:59;;;;;;;8.55;6.75;;;;;;;3.32;33.37;101274.16;10323701;28;20098;-63
2024/01/09 15:18:01;;;;;;;9.52;7.40;;;;;;;3.18;34.47;101282.50;10325450;28;21161;-64
2024/01/09 15:23:04;;;;;;;10.30;7.63;;;;;;;2.89;34.90;101257.16;10364933;28;20046;-64
2024/01/09 15:28:06;;;;;;;8.80;7.07;;;;;;;2.69;34.97;101261.28;10325134;28;20149;-65
2024/01/09 15:33:09;;;;;;;10.00;7.15;;;;;;;2.61;34.69;101281.69;10325629;28;20645;-63
2024/01/09 15:38:11;;;;;;;10.32;7.40;;;;;;;2.41;35.04;101280.53;10327108;28;20504;-63
2024/01/09 15:43:14;;;;;;;8.52;6.88;;;;;;;2.24;35.92;101274.94;10332148;28;20049;-67
2024/01/09 15:48:16;;;;;;;9.02;6.45;;;;;;;2.05;35.74;101269.34;10339416;28;20062;-65
2024/01/09 15:53:18;;;;;;;8.13;5.95;;;;;;;2.06;36.59;101278.97;10347521;28;20123;-67
2024/01/09 15:58:20;;;;;;;8.80;6.57;;;;;;;2.09;35.37;101263.97;10322488;28;20088;-67
2024/01/09 16:03:24;;;;;;;7.97;7.05;;;;;;;2.07;35.55;101280.66;10325296;28;20057;-64
2024/01/09 16:08:25;;;;;;;10.02;6.55;;;;;;;1.99;35.36;101283.50;10326041;28;20090;-64
2024/01/09 16:13:28;;;;;;;10.65;7.93;;;;;;;1.97;36.03;101284.44;10344123;28;20164;-64
2024/01/09 16:18:29;;;;;;;8.82;6.88;;;;;;;1.76;36.17;101277.13;10325836;28;20053;-64
2024/01/09 16:23:36;;;;;;;9.25;6.22;;;;;;;1.76;35.33;101279.75;10322712;28;20049;-65
2024/01/09 16:28:38;;;;;;;8.45;6.40;;;;;;;1.47;36.05;101304.16;10320465;28;20061;-62
2024/01/09 16:33:43;;;;;;;9.48;6.20;;;;;;;1.40;36.68;101311.31;10321755;28;20054;-65
2024/01/09 16:38:45;;;;;;;;;;;;;;;1.51;36.57;101304.94;10331234;28;20053;-66
2024/01/09 16:43:50;;;;;;;11.18;8.05;;;;;;;1.50;36.37;101305.84;10342096;28;20883;-66
2024/01/09 16:48:52;;;;;;;9.10;6.97;;;;;;;1.30;35.88;101304.56;10331540;28;20069;-66
2024/01/09 16:53:55;;;;;;;13.27;8.13;;;;;;;1.19;36.07;101312.72;10322716;28;20531;-66
2024/01/09 16:58:56;;;;;;;10.30;7.07;;;;;;;1.01;37.20;101306.16;10325538;28;20060;-65
2024/01/09 17:03:58;;;;;;;11.77;7.53;;;;;;;1.02;36.15;101310.53;10313743;28;20068;-66
2024/01/09 17:08:59;;;;;;;10.48;8.00;;;;;;;1.12;37.09;101326.03;10317777;28;20104;-65
2024/01/09 17:14:03;;;;;;;11.40;8.45;;;;;;;1.05;36.15;101331.41;10319190;28;20144;-63
2024/01/09 17:19:05;;;;;;;9.75;7.40;;;;;;;0.83;36.94;101322.34;10319014;28;20125;-64
2024/01/09 17:24:06;;;;;;;12.45;8.68;;;;;;;0.73;36.81;101318.19;10332824;28;20049;-63
2024/01/09 17:29:08;;;;;;;11.85;7.85;;;;;;;0.72;37.01;101317.31;10318654;28;20065;-65
2024/01/09 17:34:09;;;;;;;11.48;7.53;;;;;;;0.74;37.48;101325.16;10314853;28;20073;-64
2024/01/09 17:39:13;;;;;;;10.15;7.97;;;;;;;0.72;37.36;101326.94;10322499;28;20066;-65
2024/01/09 17:44:15;;;;;;;12.93;8.75;;;;;;;0.49;37.38;101334.41;10325332;28;20053;-63
2024/01/09 17:49:17;;;;;;;11.95;8.27;;;;;;;0.43;37.69;101320.59;10365690;28;20755;-64
2024/01/09 17:54:18;;;;;;;10.25;8.70;;;;;;;0.47;36.69;101322.25;10333393;28;20069;-66
2024/01/09 17:59:20;;;;;;;10.80;7.85;;;;;;;0.55;37.57;101322.94;10330570;28;20053;-66
2024/01/09 18:04:21;;;;;;;14.80;7.78;;;;;;;0.66;37.85;101334.06;10361918;28;23954;-64
2024/01/09 18:09:24;;;;;;;11.07;8.60;;;;;;;0.64;37.28;101341.06;10329240;28;20504;-63
2024/01/09 18:14:25;;;;;;;10.90;8.95;;;;;;;0.58;38.26;101341.22;10331847;28;20109;-65
2024/01/09 18:19:27;;;;;;;12.02;7.72;;;;;;;0.32;37.75;101347.88;10328878;28;20058;-64
2024/01/09 18:24:29;;;;;;;13.98;9.30;;;;;;;0.26;38.56;101341.91;10331725;28;20557;-65
2024/01/09 18:29:33;;;;;;;11.43;9.40;;;;;;;0.27;38.88;101357.59;10335786;28;20053;-66
2024/01/09 18:34:37;;;;;;;11.85;8.00;;;;;;;0.38;38.43;101361.75;10343975;28;20203;-64
2024/01/09 18:39:39;;;;;;;13.18;9.65;;;;;;;0.19;38.23;101359.47;10328300;28;20548;-65
2024/01/09 18:44:41;;;;;;;10.93;7.55;;;;;;;-0.02;39.15;101358.97;10328210;28;20054;-63
2024/01/09 18:49:43;;;;;;;12.48;8.70;;;;;;;0.15;39.37;101369.16;10333144;28;20066;-66
2024/01/09 18:54:45;;;;;;;13.00;9.65;;;;;;;-0.16;38.79;101339.22;10325465;28;20061;-65
2024/01/09 18:59:47;;;;;;;11.45;8.80;;;;;;;-0.13;39.02;101352.25;10352131;28;20638;-65
2024/01/09 19:04:49;;;;;;;12.48;10.00;;;;;;;-0.15;40.06;101362.75;10327032;28;20104;-65
2024/01/09 19:09:52;;;;;;;12.55;9.60;;;;;;;-0.08;39.59;101364.34;10347407;28;20673;-66
2024/01/09 19:14:54;;;;;;;14.30;9.75;;;;;;;-0.13;39.56;101374.03;10320564;28;20053;-65
2024/01/09 19:19:55;;;;;;;15.45;9.95;;;;;;;-0.10;40.19;101368.75;10326404;28;20563;-64
2024/01/09 19:24:57;;;;;;;16.83;10.93;;;;;;;-0.47;40.25;101343.22;10328764;28;20148;-65
2024/01/09 19:30:00;;;;;;;11.95;9.48;;;;;;;-0.24;39.53;101387.31;10325836;28;20057;-64
2024/01/09 19:35:02;;;;;;;14.18;10.48;;;;;;;-0.31;40.80;101377.00;10326785;28;20096;-63
2024/01/09 19:40:05;;;;;;;15.60;10.23;;;;;;;-0.34;40.43;101384.91;10345570;28;20122;-63
2024/01/09 19:45:08;;;;;;;17.33;10.57;;;;;;;-0.31;40.44;101384.84;10353014;28;20052;-63
2024/01/09 19:50:10;;;;;;;14.23;11.00;;;;;;;-0.44;40.63;101379.81;10342282;28;20136;-63
2024/01/09 19:55:11;;;;;;;15.15;11.00;;;;;;;-0.39;40.91;101401.53;10309808;28;20538;-64
2024/01/09 20:00:14;;;;;;;13.77;10.07;;;;;;;-0.56;40.71;101391.31;10325528;28;20069;-61
2024/01/09 20:05:16;;;;;;;16.77;11.57;;;;;;;-0.59;40.92;101400.97;10325098;28;20589;-61
2024/01/09 20:10:17;;;;;;;15.23;11.20;;;;;;;-0.61;41.17;101400.16;10326378;28;20050;-62
2024/01/09 20:15:19;;;;;;;16.45;11.32;;;;;;;-0.57;41.14;101393.97;10326812;28;20121;-63
2024/01/09 20:20:20;;;;;;;16.58;12.00;;;;;;;-0.56;41.54;101400.94;10327391;28;20701;-64
2024/01/09 20:25:22;;;;;;;15.82;11.10;;;;;;;-0.63;41.72;101400.19;10335119;28;20058;-63
2024/01/09 20:30:24;;;;;;;16.50;11.95;;;;;;;-0.85;43.01;101398.78;10322362;28;20135;-62
2024/01/09 20:35:26;;;;;;;18.02;13.20;;;;;;;-0.73;42.36;101399.44;10321974;28;20054;-63
2024/01/09 20:40:27;;;;;;;16.25;11.93;;;;;;;-0.75;42.12;101401.22;10328236;28;20893;-64
2024/01/09 20:45:29;;;;;;;16.73;11.88;;;;;;;-0.89;42.20;101392.72;10329205;28;20050;-62
2024/01/09 20:50:31;;;;;;;23.70;15.10;;;;;;;-0.99;42.11;101386.78;10326801;28;20081;-64
2024/01/09 20:55:32;;;;;;;19.83;14.20;;;;;;;-0.97;43.38;101394.59;10322214;28;20056;-63
2024/01/09 21:00:34;;;;;;;19.73;14.50;;;;;;;-1.29;43.54;101398.50;10344020;28;20049;-64
2024/01/09 21:05:36;;;;;;;18.20;13.77;;;;;;;-1.27;43.74;101389.75;10322897;28;20731;-63
2024/01/09 21:10:39;;;;;;;17.85;12.68;;;;;;;-1.18;43.90;101403.59;10325958;28;20446;-62
2024/01/09 21:15:42;;;;;;;19.90;14.18;;;;;;;-1.11;45.17;101403.50;10341388;28;20056;-63
2024/01/09 21:20:46;;;;;;;18.23;14.90;;;;;;;-1.04;44.40;101408.63;10321725;28;20125;-62
2024/01/09 21:25:48;;;;;;;19.38;14.00;;;;;;;-1.19;45.59;101392.25;10325638;28;20057;-63
2024/01/09 21:30:50;;;;;;;22.20;14.40;;;;;;;-1.17;44.27;101410.53;10316053;28;20054;-64
2024/01/09 21:35:54;;;;;;;15.13;11.48;;;;;;;-1.12;44.79;101412.19;10319345;28;20061;-63
2024/01/09 21:40:56;;;;;;;19.70;14.07;;;;;;;-1.19;45.27;101415.78;10324201;28;20479;-64
2024/01/09 21:46:01;;;;;;;21.93;14.67;;;;;;;-1.19;46.42;101418.38;10320212;28;20590;-63
2024/01/09 21:51:03;;;;;;;22.25;14.98;;;;;;;-1.22;45.22;101414.97;10322177;28;20054;-63
2024/01/09 21:56:05;;;;;;;19.17;14.32;;;;;;;-1.55;46.44;101410.13;10323358;28;20131;-65
2024/01/09 22:01:08;;;;;;;25.13;15.77;;;;;;;-1.38;45.27;101409.06;10357012;28;20054;-64
2024/01/09 22:06:09;;;;;;;24.63;15.68;;;;;;;-1.38;45.57;101394.28;10326866;28;20053;-63
2024/01/09 22:11:11;;;;;;;21.10;15.05;;;;;;;-1.43;45.19;101396.94;10322739;28;20124;-62
2024/01/09 22:16:19;;;;;;;24.20;16.27;;;;;;;-1.55;46.51;101401.44;10325356;28;20057;-61
2024/01/09 22:21:20;;;;;;;22.02;15.43;;;;;;;-1.43;45.80;101404.78;10320315;28;20503;-64
2024/01/09 22:26:22;;;;;;;26.20;17.48;;;;;;;-1.51;45.86;101404.00;10311943;28;20050;-64
2024/01/09 22:31:23;;;;;;;24.80;17.13;;;;;;;-1.81;46.63;101406.06;10350826;28;20042;-62
2024/01/09 22:36:25;;;;;;;21.35;14.68;;;;;;;-1.82;46.40;101388.69;10330274;28;20173;-62
2024/01/09 22:41:28;;;;;;;23.75;16.90;;;;;;;-1.63;46.49;101404.16;10330845;28;20147;-64
2024/01/09 22:46:31;;;;;;;22.30;15.77;;;;;;;-1.64;47.27;101398.03;10326922;28;20688;-62
2024/01/09 22:51:32;;;;;;;24.65;16.05;;;;;;;-1.67;46.38;101407.66;10331805;28;20066;-62
2024/01/09 22:56:33;;;;;;;24.13;15.43;;;;;;;-1.75;46.80;101404.28;10323885;28;20133;-63
2024/01/09 23:01:36;;;;;;;24.85;16.65;;;;;;;-1.78;46.84;101394.72;10361779;28;20057;-62